Terminal Aerodrome Forecast
Issued by NWS

Current Version | Previous Version | Text Only | Print | Product List | Glossary On
Versions: 1 2 3 4 5 6 7 8 9 10 11 12 13 14 15 16 17 18 19 20 21 22
000
FTUS43 KAPX 311740
TAFMBL
TAF
KMBL 311740Z 3118/0118 31007KT P6SM OVC022
     FM312300 35007KT P6SM OVC022
     FM010700 36007KT P6SM OVC150
     FM011200 05008KT P6SM OVC150
      AMD LTD TO CLD VIS AND WIND=

USA.gov is the U.S. government's official web portal to all federal, state and local government web resources and services.